Terminal Aerodrome Forecast
Issued by NWS

Current Version | Previous Version | Text Only | Print | Product List | Glossary On
Versions: 1 2 3 4 5 6 7 8 9 10 11 12 13
000
FTUS45 KREV 082346
TAFTRK
TAF
KTRK 082346Z 0900/0924 20010KT P6SM VCSH SCT025 BKN035
     FM090300 21008KT P6SM VCSH SCT020 BKN035
     FM092200 20015G25KT P6SM BKN030 BKN050 WS020/25050KT=

USA.gov is the U.S. government's official web portal to all federal, state and local government web resources and services.